Startpagina
METAR-TAF:

METAR-TAF

Vliegvelden :

Mendoza, Argentinië

breedte: 32-50S, lengte: 068-47W, hoogte: 705 m

Actueel weer

Dit bericht is 2 uur en het 15 minuten geleden gemaakt, om 19:00 UTC
Wind 10 kt uit het zuidoosten
Temperatuur 26°C
Vochtigheid 24%
Druk 1011 hPa
Zicht 10 km of meer
geen wolken onder 1500 m en geen cumulonimbus

METAR: SAME 241900Z 14010KT CAVOK 26/04 Q1011

Tijdstip: 18:15 (21:15 UTC)

Verwachting

Dit bericht is 4 uur en het 15 minuten geleden gemaakt, om 17:00 UTC
Verwachting geldig van 24 om 18 UTC tot 25 om 18 UTC
Wind 10 kt uit het zuidoosten
Zicht 10 km of meer
geen wolken onder 1500 m en geen cumulonimbus
Wijzigt naar
van 25 om 03 UTC tot 25 om 05 UTC
Wind 15 kt uit het zuiden
Zicht 10 km of meer
Verspreide wolken op 4000 ft
Verspreide wolken op 10000 ft

TAF: SAME 241700Z 2418/2518 14010KT CAVOK TX29/2420Z TN11/2510Z BECMG 2503/2505 18015KT 9999 SCT040 SCT100

Waarnemingen en weersverwachtingen van meer dan 4000 vliegvelden (METAR en TAF).

De beschikbare stations zijn de gele en rode punten op de kaart.

Ga met uw muis naar het station om de naam te zien.

Klik dan om waarnemingen en weersverwachtingen te zien.

kaart wijzigen: klik op de groene knoppen met een zwart kruis om in te zoomen, op de groene knop met een streepje om uit te zoomen of op de groene pijlen voor aangrenzende kaarten.


METAR-TAF: